Data for 07/03/2013

Time Sea-Level Adjusted Pressure Absolute Pressure Temperature Relative Humidity Dew Point   
(mb) (inHg) (mb) (inHg) (C) (F) (%) (C) (F)
00:05 1020 30.12 849 25.07 21.2 70.1 43 8.3 46.9
00:10 1020 30.12 849 25.07 21.3 70.4 40 7.2 45
00:15 1020 30.12 849 25.07 21.6 70.8 44 8.8 47.9
00:20 1020 30.12 849 25.07 20.9 69.7 44 8.5 47.2
00:25 1020 30.12 849 25.07 21 69.7 45 8.6 47.5
00:30 1020 30.12 849 25.07 21 69.8 42 7.7 45.9
00:35 1020 30.12 849 25.07 21.2 70.2 43 8.4 47.1
00:40 1020 30.12 849 25.07 21.1 70 44 8.5 47.3
00:45 1020 30.12 849 25.07 20.7 69.3 45 8.5 47.3
00:50 1020 30.12 849 25.07 20.5 68.9 43 7.8 46
00:55 1020 30.12 849 25.07 20.7 69.3 44 8.3 47
01:00 1020 30.12 849 25.07 20.4 68.6 48 9.1 48.3
01:05 1020 30.12 849 25.07 19.7 67.5 49 8.9 48
01:10 1020 30.12 849 25.07 19.7 67.5 48 8.4 47.2
01:15 1020 30.12 849 25.07 19.8 67.6 47 8.4 47.2
01:20 1020 30.12 849 25.07 19.9 67.8 46 8.2 46.8
01:25 1020 30.12 849 25.07 20 67.9 46 8.3 46.9
01:30 1020 30.12 849 25.07 19.9 67.9 46 8.2 46.8
01:35 1020 30.12 849 25.07 19.8 67.7 47 8.4 47.1
01:40 1020 30.12 849 25.07 19.6 67.3 47 8.2 46.7
01:45 1020 30.12 849 25.07 19.6 67.3 49 8.8 47.9
01:50 1020 30.12 849 25.07 19.6 67.3 46 7.8 46.1
01:55 1020 30.12 849 25.07 19.7 67.5 47 8.1 46.6
02:00 1020 30.12 849 25.07 19.7 67.5 46 7.9 46.2
02:05 1020 30.12 849 25.07 19.9 67.9 45 7.7 45.8
02:10 1020 30.12 849 25.07 20.1 68.1 46 8.2 46.8
02:15 1020 30.12 849 25.07 20.2 68.3 48 9 48.2
02:20 1020 30.12 849 25.07 19.9 67.8 48 8.6 47.5
02:25 1020 30.12 849 25.07 19.5 67.1 47 8.2 46.7
02:30 1020 30.12 849 25.07 19.3 66.7 48 8.2 46.8
02:35 1020 30.12 849 25.07 19.1 66.4 48 8.1 46.5
02:40 1020 30.12 849 25.07 19.1 66.4 49 8.2 46.8
02:45 1020 30.12 849 25.07 19.2 66.5 49 8.4 47.2
02:50 1020 30.12 849 25.07 19.2 66.5 49 8.3 46.9
02:55 1020 30.12 849 25.07 18.7 65.6 53 9.1 48.4
03:00 1020 30.12 849 25.07 18 64.4 56 9.2 48.5
03:05 1020 30.12 849 25.07 17.6 63.7 55 8.7 47.7
03:10 1020 30.12 849 25.07 17.6 63.6 55 8.6 47.5
03:15 1020 30.12 849 25.07 17.7 63.8 55 8.5 47.3
03:20 1020 30.12 849 25.07 17.7 63.9 56 9.1 48.3
03:25 1020 30.12 849 25.07 18 64.3 53 8.4 47.1
03:30 1020 30.12 849 25.07 18 64.5 53 8.3 46.9
03:35 1020 30.12 849 25.07 18.2 64.7 51 8.1 46.5
03:40 1020 30.12 849 25.07 18.3 64.9 51 8 46.4
03:45 1020 30.12 849 25.07 18.1 64.6 51 8.1 46.5
03:50 1020 30.12 849 25.07 18.1 64.5 50 7.6 45.7
03:55 1020 30.12 849 25.07 18.4 65.1 50 7.9 46.3
04:00 1020 30.12 849 25.07 18.4 65.1 49 7.7 45.9
04:05 1020 30.12 849 25.07 18.2 64.8 52 8.2 46.8
04:10 1020 30.12 850 25.1 18.1 64.6 51 8 46.3
04:15 1020 30.12 850 25.1 18.2 64.8 52 8.4 47.2
04:20 1020 30.12 850 25.1 18.1 64.6 52 8.1 46.6
04:25 1020 30.12 850 25.1 18.4 65 51 8 46.4
04:30 1021 30.15 850 25.1 18.8 65.8 49 8 46.3
04:35 1021 30.15 850 25.1 18.6 65.4 52 8.7 47.7
04:40 1021 30.15 850 25.1 18.4 65.1 51 8.3 47
04:45 1021 30.15 850 25.1 18.6 65.4 56 9.9 49.7
04:50 1021 30.15 850 25.1 18.3 65 54 9 48.1
04:55 1021 30.15 850 25.1 18.3 65 52 8.4 47.2
05:00 1021 30.15 850 25.1 18.7 65.7 49 8 46.5
05:05 1021 30.15 850 25.1 19.1 66.4 47 7.8 46.1
05:10 1021 30.15 850 25.1 19.5 67.1 48 8.4 47.2
05:15 1021 30.15 850 25.1 19.4 67 48 8.2 46.8
05:20 1021 30.15 850 25.1 19.5 67.2 47 8.2 46.7
05:25 1021 30.15 850 25.1 19.7 67.4 51 9.5 49.1
05:30 1021 30.15 850 25.1 19.4 66.9 51 9 48.1
05:35 1021 30.15 850 25.1 18.9 66.1 52 8.9 48
05:40 1021 30.15 850 25.1 18.8 65.9 53 9.2 48.5
05:45 1021 30.15 850 25.1 18.9 65.9 53 9.1 48.3
05:50 1021 30.15 850 25.1 18.8 65.9 54 9.3 48.8
05:55 1021 30.15 850 25.1 18.8 65.9 53 9.2 48.6
06:00 1021 30.15 850 25.1 18.8 65.9 55 9.8 49.7
06:05 1021 30.15 850 25.1 18.8 65.9 54 9.5 49.1
06:10 1021 30.15 851 25.13 19.1 66.3 53 9.4 49
06:15 1021 30.15 850 25.1 19.3 66.8 51 9.1 48.4
06:20 1021 30.15 851 25.13 19.7 67.4 54 10.1 50.2
06:25 1021 30.15 851 25.13 20.1 68.2 51 9.8 49.6
06:30 1021 30.15 851 25.13 20.3 68.6 51 9.9 49.8
06:35 1021 30.15 851 25.13 20.6 69.1 51 10.2 50.4
06:40 1022 30.18 851 25.13 20.9 69.7 48 9.8 49.7
06:45 1022 30.18 851 25.13 21.4 70.6 52 11.4 52.4
06:50 1022 30.18 851 25.13 21.6 70.9 50 11 51.7
06:55 1022 30.18 851 25.13 21.7 71 52 11.4 52.5
07:00 1022 30.18 851 25.13 21.8 71.2 51 11.3 52.4
07:05 1022 30.18 851 25.13 22.1 71.7 51 11.6 52.8
07:10 1022 30.18 851 25.13 22.4 72.4 49 11.4 52.5
07:15 1021 30.15 851 25.13 23 73.4 49 11.9 53.4
07:20 1021 30.15 851 25.13 23.4 74 48 12 53.7
07:25 1021 30.15 851 25.13 23.6 74.4 48 12.1 53.8
07:30 1022 30.18 851 25.13 24.2 75.6 46 12.1 53.8
07:35 1022 30.18 851 25.13 24.9 76.8 45 12.5 54.5
07:40 1022 30.18 851 25.13 25.4 77.8 43 12.2 54
07:45 1022 30.18 851 25.13 25.4 77.7 45 12.7 54.9
07:50 1022 30.18 851 25.13 24.7 76.5 47 12.8 55
07:55 1022 30.18 851 25.13 24.8 76.6 46 12.4 54.4
08:00 1021 30.15 851 25.13 25.1 77.2 45 12.7 54.8
08:05 1022 30.18 851 25.13 25.7 78.3 43 12.4 54.2
08:10 1022 30.18 851 25.13 26.4 79.5 42 12.8 55
08:15 1022 30.18 851 25.13 26.3 79.4 42 12.8 55
08:20 1022 30.18 851 25.13 26.2 79.1 44 13.1 55.5
08:25 1022 30.18 851 25.13 26.6 79.8 42 12.9 55.3
08:30 1022 30.18 851 25.13 26.6 80 43 13.1 55.6
08:35 1022 30.18 851 25.13 26.1 79 40 11.6 52.9
08:40 1022 30.18 851 25.13 26.6 79.8 41 12.6 54.7
08:45 1021 30.15 851 25.13 27.1 80.7 38 12 53.5
08:50 1021 30.15 851 25.13 27.4 81.4 38 12.1 53.8
08:55 1021 30.15 851 25.13 28 82.4 35 11.4 52.4
09:00 1021 30.15 851 25.13 28 82.4 35 11.3 52.3
09:05 1021 30.15 851 25.13 28.4 83.1 33 10.9 51.7
09:10 1021 30.15 851 25.13 28.7 83.6 34 11.3 52.4
09:15 1021 30.15 851 25.13 28.5 83.3 33 10.9 51.7
09:20 1021 30.15 850 25.1 28.6 83.5 33 11.1 52
09:25 1021 30.15 850 25.1 29.1 84.3 31 10.7 51.3
09:30 1021 30.15 851 25.13 29.2 84.6 32 11.1 51.9
09:35 1021 30.15 851 25.13 29.7 85.5 29 9.9 49.8
09:40 1021 30.15 851 25.13 30.1 86.1 28 10 50.1
09:45 1021 30.15 851 25.13 29.8 85.6 27 9.3 48.8
09:50 1021 30.15 851 25.13 29.7 85.4 28 9.4 48.9
09:55 1021 30.15 851 25.13 29.5 85.1 27 8.8 47.8
10:00 1021 30.15 851 25.13 29.8 85.7 25 8.2 46.8
10:05 1021 30.15 850 25.1 29.6 85.3 28 9.3 48.7
10:10 1021 30.15 850 25.1 29.9 85.9 27 9 48.2
10:15 1021 30.15 850 25.1 30.2 86.4 26 8.7 47.7
10:20 1021 30.15 850 25.1 30.3 86.6 27 9.5 49
10:25 1021 30.15 850 25.1 30.3 86.5 26 8.9 48
10:30 1021 30.15 850 25.1 30.7 87.3 26 9.4 48.9
10:35 1021 30.15 850 25.1 29.9 85.9 27 9.4 48.9
10:40 1021 30.15 850 25.1 30 86 27 9.3 48.8
10:45 1021 30.15 850 25.1 29.7 85.4 27 9 48.1
10:50 1021 30.15 850 25.1 30.1 86.3 26 8.6 47.5
10:55 1021 30.15 850 25.1 29.6 85.2 25 7.9 46.2
11:00 1021 30.15 850 25.1 30.3 86.6 21 6.1 42.9
11:05 1021 30.15 850 25.1 30.7 87.3 21 6.2 43.1
11:10 1021 30.15 850 25.1 30.4 86.8 22 6.7 44
11:15 1021 30.15 850 25.1 30.6 87.1 23 7.5 45.5
11:20 1021 30.15 850 25.1 30.2 86.4 23 7.4 45.2
11:25 1021 30.15 850 25.1 30.4 86.8 23 7.4 45.2
11:30 1021 30.15 850 25.1 30.6 87 22 7.1 44.8
11:35 1021 30.15 850 25.1 30.9 87.6 23 7.9 46.2
11:40 1021 30.15 850 25.1 31.6 88.8 24 9.2 48.5
11:45 1021 30.15 850 25.1 31.4 88.5 21 7 44.6
11:50 1021 30.15 850 25.1 31.2 88.2 22 7.2 45
11:55 1021 30.15 850 25.1 30.6 87 23 7.7 45.9
12:00 1021 30.15 850 25.1 30.9 87.5 23 7.5 45.6
12:05 1021 30.15 850 25.1 30.8 87.4 23 7.4 45.4
12:10 1020 30.12 850 25.1 31.2 88.1 23 7.8 46
12:15 1020 30.12 850 25.1 30.9 87.5 23 7.9 46.2
12:20 1020 30.12 850 25.1 31.1 88 22 7.3 45.1
12:25 1020 30.12 850 25.1 31.2 88.1 22 7.6 45.7
12:30 1020 30.12 849 25.07 31.9 89.3 20 6.7 44
12:35 1020 30.12 849 25.07 31.9 89.5 21 7.3 45.2
12:40 1020 30.12 849 25.07 31.6 88.9 22 7.5 45.5
12:45 1020 30.12 849 25.07 31.5 88.7 24 8.6 47.4
12:50 1020 30.12 849 25.07 31.2 88.1 22 7.2 45
12:55 1020 30.12 849 25.07 30.7 87.3 21 6.5 43.7
13:00 1020 30.12 849 25.07 30.9 87.6 22 7.3 45.1
13:05 1020 30.12 849 25.07 31 87.8 23 8.1 46.5
13:10 1020 30.12 849 25.07 30.2 86.3 25 8.3 47
13:15 1020 30.12 849 25.07 30.4 86.8 25 8.3 46.9
13:20 1020 30.12 849 25.07 30.9 87.7 23 7.5 45.6
13:25 1020 30.12 849 25.07 31.4 88.5 23 8.3 46.9
13:30 1020 30.12 849 25.07 31.5 88.7 22 7.9 46.2
13:35 1020 30.12 849 25.07 31.2 88.1 23 8.1 46.5
13:40 1020 30.12 849 25.07 31 87.8 23 8 46.4
13:45 1020 30.12 849 25.07 30.9 87.5 22 7.3 45.1
13:50 1020 30.12 849 25.07 31.3 88.4 22 7.6 45.7
13:55 1020 30.12 849 25.07 32 89.6 21 7.6 45.6
14:00 1020 30.12 849 25.07 32.6 90.7 20 7.4 45.4
14:05 1020 30.12 849 25.07 33 91.4 19 6.8 44.3
14:10 1019 30.09 849 25.07 33.2 91.8 19 7.1 44.7
14:15 1019 30.09 849 25.07 32.4 90.3 19 5.8 42.5
14:20 1019 30.09 849 25.07 32.2 90 19 5.7 42.3
14:25 1019 30.09 848 25.04 31.9 89.4 22 8.2 46.8
14:30 1019 30.09 848 25.04 32 89.7 23 8.6 47.5
14:35 1019 30.09 848 25.04 32 89.6 22 7.9 46.2
14:40 1019 30.09 848 25.04 32.4 90.2 21 7.6 45.7
14:45 1019 30.09 848 25.04 31.9 89.4 19 5.8 42.5
14:50 1019 30.09 848 25.04 32.4 90.4 18 5.6 42
14:55 1019 30.09 848 25.04 32.7 90.8 17 5 41
15:00 1019 30.09 848 25.04 32.9 91.1 20 7.3 45.2
15:05 1019 30.09 848 25.04 32.3 90.1 20 7 44.6
15:10 1019 30.09 848 25.04 31.8 89.2 22 8.1 46.6
15:15 1019 30.09 848 25.04 32.1 89.8 21 7.2 44.9
15:20 1019 30.09 848 25.04 31.5 88.8 21 6.7 44
15:25 1019 30.09 848 25.04 30.8 87.5 22 7 44.6
15:30 1019 30.09 848 25.04 30.7 87.3 23 7.8 46.1
15:35 1018 30.06 848 25.04 30.5 86.8 22 6.8 44.3
15:40 1018 30.06 848 25.04 30.5 86.9 23 7.5 45.5
15:45 1018 30.06 848 25.04 30.6 87.1 23 7.7 45.8
15:50 1018 30.06 848 25.04 30.8 87.4 23 7.5 45.5
15:55 1018 30.06 848 25.04 31 87.8 22 7 44.7
16:00 1018 30.06 848 25.04 31.1 87.9 22 6.9 44.5
16:05 1018 30.06 847 25.01 31.4 88.5 22 7.7 45.8
16:10 1018 30.06 847 25.01 30.9 87.6 23 7.9 46.3
16:15 1018 30.06 847 25.01 31.1 88 22 7.6 45.6
16:20 1018 30.06 847 25.01 30.8 87.5 22 7.1 44.8
16:25 1018 30.06 847 25.01 30.8 87.4 25 8.8 47.9
16:30 1018 30.06 847 25.01 30.6 87 25 8.6 47.4
16:35 1018 30.06 847 25.01 30.6 87.1 24 7.8 46.1
16:40 1018 30.06 847 25.01 30.4 86.7 24 7.8 46
16:45 1018 30.06 847 25.01 30.1 86.3 24 7.6 45.7
16:50 1018 30.06 847 25.01 30.3 86.5 25 8.3 47
16:55 1018 30.06 847 25.01 30.8 87.5 23 7.4 45.4
17:00 1018 30.06 847 25.01 30.4 86.7 24 8.1 46.7
17:05 1018 30.06 847 25.01 30.4 86.8 24 8.1 46.5
17:10 1018 30.06 847 25.01 30.6 87 23 7.4 45.3
17:15 1018 30.06 847 25.01 30.5 86.9 22 6.9 44.3
17:20 1017 30.03 847 25.01 30.2 86.3 22 6.7 44
17:25 1017 30.03 847 25.01 30.1 86.2 24 7.9 46.2
17:30 1017 30.03 847 25.01 30.3 86.5 24 7.7 45.8
17:35 1017 30.03 847 25.01 30.5 86.8 23 7.3 45.2
17:40 1017 30.03 847 25.01 30.3 86.5 24 7.5 45.5
17:45 1017 30.03 847 25.01 30.2 86.4 24 8 46.4
17:50 1017 30.03 847 25.01 30.4 86.6 23 7.2 45
17:55 1017 30.03 847 25.01 30.4 86.7 25 8.5 47.3
18:00 1017 30.03 847 25.01 30.7 87.2 23 7.8 46
18:05 1017 30.03 847 25.01 30.8 87.5 22 7.3 45.2
18:10 1017 30.03 847 25.01 30.9 87.6 24 8.2 46.7
18:15 1017 30.03 847 25.01 30.9 87.5 21 6.4 43.5
18:20 1017 30.03 847 25.01 30.7 87.2 21 6.4 43.5
18:25 1017 30.03 847 25.01 31.1 87.9 21 6.3 43.3
18:30 1017 30.03 847 25.01 31.4 88.4 21 6.6 43.9
18:35 1017 30.03 847 25.01 30.7 87.3 22 6.9 44.3
18:40 1017 30.03 847 25.01 30.4 86.8 24 8.1 46.5
18:45 1017 30.03 847 25.01 30.3 86.6 25 8.7 47.6
18:50 1017 30.03 847 25.01 30.2 86.4 22 6.6 43.8
18:55 1017 30.03 847 25.01 30.1 86.1 23 7.2 44.9
19:00 1017 30.03 847 25.01 29.9 85.8 24 7.7 45.8
19:05 1017 30.03 847 25.01 29.7 85.4 24 7.1 44.7
19:10 1017 30.03 847 25.01 29.7 85.4 23 6.9 44.4
19:15 1017 30.03 847 25.01 29.5 85.2 25 7.8 46
19:20 1017 30.03 847 25.01 29.4 84.9 27 8.6 47.5
19:25 1017 30.03 847 25.01 29.1 84.4 32 11 51.9
19:30 1017 30.03 847 25.01 28.7 83.7 33 11 51.8
19:35 1017 30.03 847 25.01 28.3 83 35 11.6 52.8
19:40 1017 30.03 847 25.01 28.1 82.5 37 12.1 53.8
19:45 1017 30.03 847 25.01 27.6 81.7 43 14.3 57.7
19:50 1017 30.03 847 25.01 27 80.5 45 14.2 57.6
19:55 1017 30.03 847 25.01 26.5 79.7 46 14 57.3
20:00 1018 30.06 847 25.01 26 78.7 50 14.9 58.7
20:05 1018 30.06 847 25.01 25.2 77.3 52 14.8 58.6
20:10 1018 30.06 847 25.01 24.7 76.5 50 13.9 57
20:15 1018 30.06 847 25.01 24.7 76.4 43 11.5 52.7
20:20 1018 30.06 847 25.01 24.8 76.6 45 12.2 54
20:25 1018 30.06 847 25.01 24.5 76 48 13.1 55.5
20:30 1018 30.06 847 25.01 24.4 75.9 46 12.3 54.2
20:35 1018 30.06 847 25.01 24.6 76.3 43 11.4 52.6
20:40 1018 30.06 847 25.01 24.8 76.7 48 13.3 56
20:45 1018 30.06 847 25.01 24.5 76.1 50 13.6 56.5
20:50 1018 30.06 847 25.01 24 75.2 48 12.4 54.3
20:55 1018 30.06 847 25.01 23.4 74 49 12.1 53.7
21:00 1018 30.06 847 25.01 22.8 73 53 12.9 55.3
21:05 1018 30.06 847 25.01 22.7 72.9 53 12.7 54.8
21:10 1018 30.06 847 25.01 22.8 73 50 12.1 53.8
21:15 1018 30.06 847 25.01 22.7 72.9 48 11.2 52.2
21:20 1018 30.06 847 25.01 22.7 72.9 49 11.7 53.1
21:25 1018 30.06 847 25.01 22.4 72.3 50 11.6 52.9
21:30 1018 30.06 847 25.01 22.1 71.8 54 12.5 54.6
21:35 1018 30.06 847 25.01 22 71.5 48 10.7 51.3
21:40 1018 30.06 847 25.01 22.1 71.7 50 11.4 52.5
21:45 1018 30.06 847 25.01 21.9 71.4 51 11.5 52.7
21:50 1018 30.06 847 25.01 21.9 71.4 50 11.3 52.3
21:55 1018 30.06 847 25.01 21.9 71.4 49 10.8 51.5
22:00 1018 30.06 847 25.01 22.1 71.7 45 9.7 49.5
22:05 1018 30.06 847 25.01 22.6 72.6 48 11.2 52.2
22:10 1018 30.06 847 25.01 22.6 72.7 44 9.9 49.8
22:15 1018 30.06 847 25.01 22.7 72.8 44 10 50
22:20 1018 30.06 847 25.01 22.7 72.8 47 10.9 51.6
22:25 1018 30.06 847 25.01 22.7 72.8 44 10 50
22:30 1018 30.06 847 25.01 22.7 72.9 47 10.9 51.6
22:35 1018 30.06 847 25.01 22.5 72.5 46 10.6 51.1
22:40 1018 30.06 847 25.01 22.4 72.3 45 10.1 50.2
22:45 1018 30.06 847 25.01 22 71.6 48 10.7 51.2
22:50 1018 30.06 847 25.01 21.5 70.6 50 10.6 51.1
22:55 1018 30.06 847 25.01 21.3 70.3 49 10.3 50.5
23:00 1018 30.06 847 25.01 21.4 70.5 51 11 51.8
23:05 1018 30.06 847 25.01 21.2 70.1 50 10.6 51.1
23:10 1018 30.06 847 25.01 20.9 69.6 52 10.9 51.6
23:15 1018 30.06 847 25.01 20.8 69.5 49 9.8 49.7
23:20 1018 30.06 847 25.01 21.4 70.6 48 10.1 50.1
23:25 1018 30.06 847 25.01 21.6 70.8 48 10.2 50.3
23:30 1018 30.06 847 25.01 21.5 70.7 49 10.5 50.8
23:35 1018 30.06 847 25.01 21.2 70.2 49 10.3 50.5
23:40 1018 30.06 847 25.01 21.1 70 51 10.8 51.5
23:45 1018 30.06 847 25.01 21 69.7 52 10.7 51.3
23:50 1018 30.06 847 25.01 20.9 69.5 49 9.8 49.7
23:55 1018 30.06 847 25.01 20.8 69.4 51 10.3 50.6
24:00 1018 30.06 847 25.01 20.6 69.1 50 10 50.1